sensor_id;sensor_type;location;lat;lon;timestamp;pressure;altitude;pressure_sealevel;temperature;humidity
61786;BME280;47692;53.714;11.372;2023-02-11T00:01:51;102133.22;;;3.50;100.00
61786;BME280;47692;53.714;11.372;2023-02-11T00:04:16;102130.63;;;3.50;100.00
61786;BME280;47692;53.714;11.372;2023-02-11T00:06:41;102122.94;;;3.52;100.00
61786;BME280;47692;53.714;11.372;2023-02-11T00:09:07;102125.53;;;3.52;100.00
61786;BME280;47692;53.714;11.372;2023-02-11T00:11:32;102108.22;;;3.49;100.00
61786;BME280;47692;53.714;11.372;2023-02-11T00:14:00;102111.53;;;3.45;100.00
61786;BME280;47692;53.714;11.372;2023-02-11T00:16:27;102126.97;;;3.42;100.00
61786;BME280;47692;53.714;11.372;2023-02-11T00:18:53;102120.88;;;3.40;100.00
61786;BME280;47692;53.714;11.372;2023-02-11T00:21:21;102120.03;;;3.41;100.00
61786;BME280;47692;53.714;11.372;2023-02-11T00:23:47;102118.44;;;3.45;100.00
61786;BME280;47692;53.714;11.372;2023-02-11T00:26:15;102102.91;;;3.43;100.00
61786;BME280;47692;53.714;11.372;2023-02-11T00:28:41;102100.22;;;3.40;100.00
61786;BME280;47692;53.714;11.372;2023-02-11T00:31:07;102106.94;;;3.35;100.00
61786;BME280;47692;53.714;11.372;2023-02-11T00:33:32;102105.31;;;3.37;100.00
61786;BME280;47692;53.714;11.372;2023-02-11T00:35:57;102100.13;;;3.37;100.00
61786;BME280;47692;53.714;11.372;2023-02-11T00:38:23;102108.75;;;3.37;100.00
61786;BME280;47692;53.714;11.372;2023-02-11T00:40:48;102109.59;;;3.38;100.00
61786;BME280;47692;53.714;11.372;2023-02-11T00:43:13;102101.97;;;3.41;100.00
61786;BME280;47692;53.714;11.372;2023-02-11T00:45:39;102096.63;;;3.35;100.00
61786;BME280;47692;53.714;11.372;2023-02-11T00:48:04;102090.72;;;3.39;100.00
61786;BME280;47692;53.714;11.372;2023-02-11T00:50:29;102094.03;;;3.35;100.00
61786;BME280;47692;53.714;11.372;2023-02-11T00:52:55;102076.91;;;3.37;100.00
61786;BME280;47692;53.714;11.372;2023-02-11T00:55:20;102076.91;;;3.37;100.00
61786;BME280;47692;53.714;11.372;2023-02-11T00:57:45;102083.91;;;3.41;100.00
61786;BME280;47692;53.714;11.372;2023-02-11T01:00:12;102071.06;;;3.44;100.00
61786;BME280;47692;53.714;11.372;2023-02-11T01:02:37;102081.50;;;3.47;100.00
61786;BME280;47692;53.714;11.372;2023-02-11T01:05:03;102084.06;;;3.47;100.00
61786;BME280;47692;53.714;11.372;2023-02-11T01:07:28;102091.84;;;3.49;100.00
61786;BME280;47692;53.714;11.372;2023-02-11T01:09:54;102091.97;;;3.52;100.00
61786;BME280;47692;53.714;11.372;2023-02-11T01:12:19;102090.19;;;3.51;100.00
61786;BME280;47692;53.714;11.372;2023-02-11T01:14:45;102090.25;;;3.52;100.00
61786;BME280;47692;53.714;11.372;2023-02-11T01:17:10;102085.91;;;3.51;100.00
61786;BME280;47692;53.714;11.372;2023-02-11T01:19:36;102083.44;;;3.56;100.00
61786;BME280;47692;53.714;11.372;2023-02-11T01:22:02;102078.31;;;3.58;100.00
61786;BME280;47692;53.714;11.372;2023-02-11T01:24:28;102082.72;;;3.62;100.00
61786;BME280;47692;53.714;11.372;2023-02-11T01:26:54;102083.66;;;3.64;100.00
61786;BME280;47692;53.714;11.372;2023-02-11T01:29:19;102071.63;;;3.64;100.00
61786;BME280;47692;53.714;11.372;2023-02-11T01:31:44;102072.56;;;3.68;100.00
61786;BME280;47692;53.714;11.372;2023-02-11T01:34:10;102061.41;;;3.69;100.00
61786;BME280;47692;53.714;11.372;2023-02-11T01:36:35;102057.97;;;3.68;100.00
61786;BME280;47692;53.714;11.372;2023-02-11T01:39:01;102055.41;;;3.70;100.00
61786;BME280;47692;53.714;11.372;2023-02-11T01:41:26;102060.59;;;3.70;100.00
61786;BME280;47692;53.714;11.372;2023-02-11T01:43:51;102055.41;;;3.70;100.00
61786;BME280;47692;53.714;11.372;2023-02-11T01:49:09;102048.66;;;3.75;100.00
61786;BME280;47692;53.714;11.372;2023-02-11T01:51:49;102039.22;;;3.76;100.00
61786;BME280;47692;53.714;11.372;2023-02-11T01:54:21;102041.84;;;3.77;100.00
61786;BME280;47692;53.714;11.372;2023-02-11T01:57:07;102045.25;;;3.76;100.00
61786;BME280;47692;53.714;11.372;2023-02-11T02:00:10;102051.38;;;3.80;100.00
61786;BME280;47692;53.714;11.372;2023-02-11T02:02:57;102052.25;;;3.80;100.00
61786;BME280;47692;53.714;11.372;2023-02-11T02:05:36;102047.94;;;3.79;100.00
61786;BME280;47692;53.714;11.372;2023-02-11T02:10:35;102045.50;;;3.85;100.00
61786;BME280;47692;53.714;11.372;2023-02-11T02:13:02;102043.81;;;3.87;100.00
61786;BME280;47692;53.714;11.372;2023-02-11T02:15:35;102042.16;;;3.90;100.00
61786;BME280;47692;53.714;11.372;2023-02-11T02:18:05;102037.78;;;3.87;100.00
61786;BME280;47692;53.714;11.372;2023-02-11T02:29:18;102051.69;;;3.92;100.00
61786;BME280;47692;53.714;11.372;2023-02-11T02:32:18;102048.19;;;3.90;100.00
61786;BME280;47692;53.714;11.372;2023-02-11T02:40:15;102042.38;;;3.99;100.00
61786;BME280;47692;53.714;11.372;2023-02-11T02:42:42;102047.53;;;3.97;100.00
61786;BME280;47692;53.714;11.372;2023-02-11T02:45:10;102043.44;;;4.06;100.00
61786;BME280;47692;53.714;11.372;2023-02-11T02:47:36;102047.78;;;4.07;100.00
61786;BME280;47692;53.714;11.372;2023-02-11T02:50:02;102033.97;;;4.06;100.00
61786;BME280;47692;53.714;11.372;2023-02-11T02:52:48;102037.53;;;4.11;100.00
61786;BME280;47692;53.714;11.372;2023-02-11T03:00:35;102016.84;;;4.11;100.00
61786;BME280;47692;53.714;11.372;2023-02-11T03:03:15;102022.00;;;4.11;100.00
61786;BME280;47692;53.714;11.372;2023-02-11T03:05:52;102029.09;;;4.18;100.00
61786;BME280;47692;53.714;11.372;2023-02-11T03:10:52;102032.66;;;4.24;100.00
61786;BME280;47692;53.714;11.372;2023-02-11T03:13:21;102034.44;;;4.26;100.00
61786;BME280;47692;53.714;11.372;2023-02-11T03:15:51;102031.00;;;4.26;100.00
61786;BME280;47692;53.714;11.372;2023-02-11T03:18:20;102024.19;;;4.29;100.00
61786;BME280;47692;53.714;11.372;2023-02-11T03:20:49;102027.63;;;4.30;100.00
61786;BME280;47692;53.714;11.372;2023-02-11T03:23:39;102027.63;;;4.30;100.00
61786;BME280;47692;53.714;11.372;2023-02-11T03:31:38;102017.38;;;4.33;100.00
61786;BME280;47692;53.714;11.372;2023-02-11T03:34:09;102003.53;;;4.31;100.00
61786;BME280;47692;53.714;11.372;2023-02-11T03:36:50;101986.28;;;4.30;100.00
61786;BME280;47692;53.714;11.372;2023-02-11T03:39:21;101984.63;;;4.33;100.00
61786;BME280;47692;53.714;11.372;2023-02-11T03:41:48;101976.00;;;4.33;100.00
61786;BME280;47692;53.714;11.372;2023-02-11T03:44:16;101970.84;;;4.33;100.00
61786;BME280;47692;53.714;11.372;2023-02-11T03:46:48;101974.31;;;4.35;100.00
61786;BME280;47692;53.714;11.372;2023-02-11T03:49:17;101965.72;;;4.36;100.00
61786;BME280;47692;53.714;11.372;2023-02-11T03:51:45;101968.34;;;4.37;100.00
61786;BME280;47692;53.714;11.372;2023-02-11T03:54:14;101963.13;;;4.34;100.00
61786;BME280;47692;53.714;11.372;2023-02-11T03:57:00;101951.03;;;4.35;100.00
61786;BME280;47692;53.714;11.372;2023-02-11T03:59:27;101956.28;;;4.36;100.00
61786;BME280;47692;53.714;11.372;2023-02-11T04:01:52;101965.81;;;4.39;100.00
61786;BME280;47692;53.714;11.372;2023-02-11T04:04:18;101970.06;;;4.37;100.00
61786;BME280;47692;53.714;11.372;2023-02-11T04:06:43;101967.63;;;4.43;100.00
61786;BME280;47692;53.714;11.372;2023-02-11T04:09:09;101964.13;;;4.41;100.00
61786;BME280;47692;53.714;11.372;2023-02-11T04:11:35;101965.19;;;4.49;100.00
61786;BME280;47692;53.714;11.372;2023-02-11T04:14:00;101962.53;;;4.46;100.00
61786;BME280;47692;53.714;11.372;2023-02-11T04:16:26;101959.22;;;4.53;100.00
61786;BME280;47692;53.714;11.372;2023-02-11T04:18:51;101976.44;;;4.51;100.00
61786;BME280;47692;53.714;11.372;2023-02-11T04:21:17;101981.63;;;4.51;100.00
61786;BME280;47692;53.714;11.372;2023-02-11T04:23:43;101985.06;;;4.52;100.00
61786;BME280;47692;53.714;11.372;2023-02-11T04:26:08;101985.09;;;4.53;100.00
61786;BME280;47692;53.714;11.372;2023-02-11T04:28:33;101990.25;;;4.53;100.00
61786;BME280;47692;53.714;11.372;2023-02-11T04:30:59;101999.78;;;4.55;100.00
61786;BME280;47692;53.714;11.372;2023-02-11T04:33:25;102005.06;;;4.59;100.00
61786;BME280;47692;53.714;11.372;2023-02-11T04:35:50;102001.69;;;4.63;100.00
61786;BME280;47692;53.714;11.372;2023-02-11T04:38:16;101996.50;;;4.63;100.00
61786;BME280;47692;53.714;11.372;2023-02-11T04:40:41;101996.53;;;4.65;100.00
61786;BME280;47692;53.714;11.372;2023-02-11T04:43:07;101993.94;;;4.65;100.00
61786;BME280;47692;53.714;11.372;2023-02-11T04:45:33;101997.47;;;4.67;100.00
61786;BME280;47692;53.714;11.372;2023-02-11T04:48:00;101991.47;;;4.69;100.00
61786;BME280;47692;53.714;11.372;2023-02-11T04:50:26;101995.91;;;4.74;100.00
61786;BME280;47692;53.714;11.372;2023-02-11T04:52:51;101980.41;;;4.75;100.00
61786;BME280;47692;53.714;11.372;2023-02-11T04:55:16;101994.19;;;4.74;100.00
61786;BME280;47692;53.714;11.372;2023-02-11T04:57:42;101994.19;;;4.76;100.00
61786;BME280;47692;53.714;11.372;2023-02-11T05:00:07;101970.06;;;4.75;100.00
61786;BME280;47692;53.714;11.372;2023-02-11T05:02:34;101964.09;;;4.79;100.00
61786;BME280;47692;53.714;11.372;2023-02-11T05:04:59;101952.81;;;4.76;100.00
61786;BME280;47692;53.714;11.372;2023-02-11T05:07:24;101953.72;;;4.78;100.00
61786;BME280;47692;53.714;11.372;2023-02-11T05:09:50;101942.47;;;4.77;100.00
61786;BME280;47692;53.714;11.372;2023-02-11T05:12:15;101940.81;;;4.79;100.00
61786;BME280;47692;53.714;11.372;2023-02-11T05:14:40;101935.66;;;4.81;100.00
61786;BME280;47692;53.714;11.372;2023-02-11T05:17:06;101925.28;;;4.79;100.00
61786;BME280;47692;53.714;11.372;2023-02-11T05:19:31;101921.78;;;4.77;100.00
61786;BME280;47692;53.714;11.372;2023-02-11T05:21:56;101932.13;;;4.77;100.00
61786;BME280;47692;53.714;11.372;2023-02-11T05:24:22;101923.59;;;4.81;100.00
61786;BME280;47692;53.714;11.372;2023-02-11T05:26:47;101922.72;;;4.81;100.00
61786;BME280;47692;53.714;11.372;2023-02-11T05:29:12;101914.00;;;4.77;100.00
61786;BME280;47692;53.714;11.372;2023-02-11T05:31:38;101921.84;;;4.80;100.00
61786;BME280;47692;53.714;11.372;2023-02-11T05:34:03;101913.13;;;4.75;100.00
61786;BME280;47692;53.714;11.372;2023-02-11T05:36:29;101923.53;;;4.78;100.00
61786;BME280;47692;53.714;11.372;2023-02-11T05:38:54;101914.94;;;4.79;100.00
61786;BME280;47692;53.714;11.372;2023-02-11T05:41:19;101914.88;;;4.76;100.00
61786;BME280;47692;53.714;11.372;2023-02-11T05:43:47;101911.44;;;4.77;100.00
61786;BME280;47692;53.714;11.372;2023-02-11T05:46:15;101906.22;;;4.76;100.00
61786;BME280;47692;53.714;11.372;2023-02-11T05:48:41;101901.94;;;4.76;100.00
61786;BME280;47692;53.714;11.372;2023-02-11T05:51:06;101904.56;;;4.78;100.00
61786;BME280;47692;53.714;11.372;2023-02-11T05:53:32;101902.78;;;4.75;100.00
61786;BME280;47692;53.714;11.372;2023-02-11T05:55:57;101896.72;;;4.75;100.00
61786;BME280;47692;53.714;11.372;2023-02-11T05:58:22;101884.69;;;4.77;100.00
61786;BME280;47692;53.714;11.372;2023-02-11T06:00:47;101878.72;;;4.79;100.00
61786;BME280;47692;53.714;11.372;2023-02-11T06:03:13;101883.97;;;4.82;100.00
61786;BME280;47692;53.714;11.372;2023-02-11T06:05:38;101878.78;;;4.82;100.00
61786;BME280;47692;53.714;11.372;2023-02-11T06:08:03;101884.00;;;4.85;100.00
61786;BME280;47692;53.714;11.372;2023-02-11T06:10:29;101890.84;;;4.83;100.00
61786;BME280;47692;53.714;11.372;2023-02-11T06:12:54;101896.09;;;4.87;100.00
61786;BME280;47692;53.714;11.372;2023-02-11T06:15:20;101903.03;;;4.88;100.00
61786;BME280;47692;53.714;11.372;2023-02-11T06:17:45;101897.91;;;4.91;100.00
61786;BME280;47692;53.714;11.372;2023-02-11T06:20:11;101892.72;;;4.91;100.00
61786;BME280;47692;53.714;11.372;2023-02-11T06:22:36;101897.97;;;4.94;100.00
61786;BME280;47692;53.714;11.372;2023-02-11T06:25:02;101897.97;;;4.94;100.00
61786;BME280;47692;53.714;11.372;2023-02-11T06:27:28;101891.97;;;4.96;100.00
61786;BME280;47692;53.714;11.372;2023-02-11T06:29:53;101889.41;;;4.98;100.00
61786;BME280;47692;53.714;11.372;2023-02-11T06:32:19;101891.22;;;5.02;100.00
61786;BME280;47692;53.714;11.372;2023-02-11T06:34:44;101875.72;;;5.04;100.00
61786;BME280;47692;53.714;11.372;2023-02-11T06:37:10;101880.94;;;5.05;100.00
61786;BME280;47692;53.714;11.372;2023-02-11T06:39:35;101872.31;;;5.06;100.00
61786;BME280;47692;53.714;11.372;2023-02-11T06:42:01;101880.16;;;5.11;100.00
61786;BME280;47692;53.714;11.372;2023-02-11T06:44:26;101905.28;;;5.16;100.00
61786;BME280;47692;53.714;11.372;2023-02-11T06:46:51;101913.97;;;5.18;100.00
61786;BME280;47692;53.714;11.372;2023-02-11T06:49:17;101917.44;;;5.21;100.00
61786;BME280;47692;53.714;11.372;2023-02-11T06:51:42;101919.28;;;5.25;100.00
61786;BME280;47692;53.714;11.372;2023-02-11T06:54:07;101924.50;;;5.28;100.00
61786;BME280;47692;53.714;11.372;2023-02-11T06:56:33;101914.19;;;5.31;100.00
61786;BME280;47692;53.714;11.372;2023-02-11T06:58:59;101928.03;;;5.33;100.00
61786;BME280;47692;53.714;11.372;2023-02-11T07:01:25;101917.75;;;5.36;100.00
61786;BME280;47692;53.714;11.372;2023-02-11T07:03:52;101920.28;;;5.34;100.00
61786;BME280;47692;53.714;11.372;2023-02-11T07:06:20;101916.00;;;5.35;100.00
61786;BME280;47692;53.714;11.372;2023-02-11T07:08:47;101933.22;;;5.33;100.00
61786;BME280;47692;53.714;11.372;2023-02-11T07:11:17;101929.78;;;5.34;100.00
61786;BME280;47692;53.714;11.372;2023-02-11T07:13:43;101932.44;;;5.37;100.00
61786;BME280;47692;53.714;11.372;2023-02-11T07:16:11;101942.75;;;5.36;100.00
61786;BME280;47692;53.714;11.372;2023-02-11T07:18:37;101954.00;;;5.36;100.00
61786;BME280;47692;53.714;11.372;2023-02-11T07:21:04;101959.19;;;5.38;100.00
61786;BME280;47692;53.714;11.372;2023-02-11T07:23:30;101972.19;;;5.41;100.00
61786;BME280;47692;53.714;11.372;2023-02-11T07:25:56;101969.66;;;5.42;100.00
61786;BME280;47692;53.714;11.372;2023-02-11T07:28:21;101967.91;;;5.41;100.00
61786;BME280;47692;53.714;11.372;2023-02-11T07:30:46;101954.16;;;5.45;100.00
61786;BME280;47692;53.714;11.372;2023-02-11T07:33:12;101960.25;;;5.47;100.00
61786;BME280;47692;53.714;11.372;2023-02-11T07:35:37;101948.22;;;5.49;100.00
61786;BME280;47692;53.714;11.372;2023-02-11T07:38:02;101947.38;;;5.52;100.00
61786;BME280;47692;53.714;11.372;2023-02-11T07:40:27;101947.41;;;5.54;100.00
61786;BME280;47692;53.714;11.372;2023-02-11T07:42:55;101946.59;;;5.58;100.00
61786;BME280;47692;53.714;11.372;2023-02-11T07:45:20;101938.03;;;5.62;100.00
61786;BME280;47692;53.714;11.372;2023-02-11T07:47:46;101944.13;;;5.64;100.00
61786;BME280;47692;53.714;11.372;2023-02-11T07:50:11;101954.56;;;5.67;100.00
61786;BME280;47692;53.714;11.372;2023-02-11T07:52:36;101948.50;;;5.68;100.00
61786;BME280;47692;53.714;11.372;2023-02-11T07:55:02;101950.34;;;5.74;100.00
61786;BME280;47692;53.714;11.372;2023-02-11T07:57:27;101962.47;;;5.75;100.00
61786;BME280;47692;53.714;11.372;2023-02-11T07:59:52;101974.53;;;5.74;100.00
61786;BME280;47692;53.714;11.372;2023-02-11T08:02:18;101974.63;;;5.80;100.00
61786;BME280;47692;53.714;11.372;2023-02-11T08:04:45;101970.34;;;5.82;100.00
61786;BME280;47692;53.714;11.372;2023-02-11T08:07:14;101965.25;;;5.86;100.00
61786;BME280;47692;53.714;11.372;2023-02-11T08:09:39;101960.91;;;5.85;100.00
61786;BME280;47692;53.714;11.372;2023-02-11T08:12:05;101945.44;;;5.91;100.00
61786;BME280;47692;53.714;11.372;2023-02-11T08:14:30;101965.34;;;5.92;100.00
61786;BME280;47692;53.714;11.372;2023-02-11T08:16:57;101982.63;;;5.93;100.00
61786;BME280;47692;53.714;11.372;2023-02-11T08:19:22;102003.41;;;5.96;100.00
61786;BME280;47692;53.714;11.372;2023-02-11T08:21:48;101991.38;;;5.98;100.00
61786;BME280;47692;53.714;11.372;2023-02-11T08:24:14;101998.31;;;5.99;100.00
61786;BME280;47692;53.714;11.372;2023-02-11T08:26:40;101997.53;;;6.05;100.00
61786;BME280;47692;53.714;11.372;2023-02-11T08:29:10;101992.34;;;6.03;100.00
61786;BME280;47692;53.714;11.372;2023-02-11T08:31:38;101991.53;;;6.06;100.00
61786;BME280;47692;53.714;11.372;2023-02-11T08:34:04;101985.50;;;6.08;100.00
61786;BME280;47692;53.714;11.372;2023-02-11T08:36:32;101983.84;;;6.13;100.00
61786;BME280;47692;53.714;11.372;2023-02-11T08:38:59;101983.03;;;6.16;100.00
61786;BME280;47692;53.714;11.372;2023-02-11T08:41:27;102001.19;;;6.18;100.00
61786;BME280;47692;53.714;11.372;2023-02-11T08:43:52;101994.34;;;6.23;100.00
61786;BME280;47692;53.714;11.372;2023-02-11T08:46:18;102010.81;;;6.25;100.00
61786;BME280;47692;53.714;11.372;2023-02-11T08:48:45;102013.44;;;6.26;100.00
61786;BME280;47692;53.714;11.372;2023-02-11T08:51:15;102016.94;;;6.27;100.00
61786;BME280;47692;53.714;11.372;2023-02-11T08:53:41;101997.88;;;6.26;100.00
61786;BME280;47692;53.714;11.372;2023-02-11T08:56:09;102012.66;;;6.30;100.00
61786;BME280;47692;53.714;11.372;2023-02-11T08:58:34;102011.00;;;6.34;100.00
61786;BME280;47692;53.714;11.372;2023-02-11T09:01:00;102013.63;;;6.37;100.00
61786;BME280;47692;53.714;11.372;2023-02-11T09:03:25;102008.44;;;6.37;100.00
61786;BME280;47692;53.714;11.372;2023-02-11T09:05:51;102005.03;;;6.41;100.00
61786;BME280;47692;53.714;11.372;2023-02-11T09:08:18;102012.91;;;6.47;100.00
61786;BME280;47692;53.714;11.372;2023-02-11T09:10:44;102029.34;;;6.48;100.00
61786;BME280;47692;53.714;11.372;2023-02-11T09:13:09;102021.56;;;6.46;100.00
61786;BME280;47692;53.714;11.372;2023-02-11T09:15:35;102021.66;;;6.53;100.00
61786;BME280;47692;53.714;11.372;2023-02-11T09:18:00;102018.16;;;6.51;100.00
61786;BME280;47692;53.714;11.372;2023-02-11T09:20:26;102019.91;;;6.52;100.00
61786;BME280;47692;53.714;11.372;2023-02-11T09:22:53;102025.09;;;6.52;100.00
61786;BME280;47692;53.714;11.372;2023-02-11T09:25:18;102025.94;;;6.51;100.00
61786;BME280;47692;53.714;11.372;2023-02-11T09:27:44;102039.81;;;6.54;100.00
61786;BME280;47692;53.714;11.372;2023-02-11T09:30:09;102034.66;;;6.56;100.00
61786;BME280;47692;53.714;11.372;2023-02-11T09:32:35;102026.03;;;6.57;100.00
61786;BME280;47692;53.714;11.372;2023-02-11T09:35:00;102027.69;;;6.53;100.00
61786;BME280;47692;53.714;11.372;2023-02-11T09:37:26;102032.03;;;6.53;100.00
61786;BME280;47692;53.714;11.372;2023-02-11T09:39:51;102041.50;;;6.51;100.00
61786;BME280;47692;53.714;11.372;2023-02-11T09:42:36;102051.88;;;6.49;100.00
61786;BME280;47692;53.714;11.372;2023-02-11T09:45:11;102061.41;;;6.52;100.00
61786;BME280;47692;53.714;11.372;2023-02-11T09:47:46;102045.84;;;6.52;100.00
61786;BME280;47692;53.714;11.372;2023-02-11T09:50:15;102044.13;;;6.54;100.00
61786;BME280;47692;53.714;11.372;2023-02-11T09:53:05;102044.03;;;6.47;100.00
61786;BME280;47692;53.714;11.372;2023-02-11T09:55:38;102044.09;;;6.51;100.00
61786;BME280;47692;53.714;11.372;2023-02-11T09:58:14;102054.47;;;6.51;100.00
61786;BME280;47692;53.714;11.372;2023-02-11T10:00:57;102055.38;;;6.53;100.00
61786;BME280;47692;53.714;11.372;2023-02-11T10:06:56;102067.34;;;6.44;100.00
61786;BME280;47692;53.714;11.372;2023-02-11T10:12:26;102069.75;;;6.34;100.00
61786;BME280;47692;53.714;11.372;2023-02-11T10:17:41;102074.03;;;6.30;100.00
61786;BME280;47692;53.714;11.372;2023-02-11T10:20:35;102073.16;;;6.28;100.00
61786;BME280;47692;53.714;11.372;2023-02-11T10:23:12;102078.34;;;6.28;100.00
61786;BME280;47692;53.714;11.372;2023-02-11T10:25:42;102073.06;;;6.25;100.00
61786;BME280;47692;53.714;11.372;2023-02-11T10:28:15;102070.50;;;6.26;100.00
61786;BME280;47692;53.714;11.372;2023-02-11T10:30:45;102075.69;;;6.26;100.00
61786;BME280;47692;53.714;11.372;2023-02-11T10:35:48;102080.06;;;6.29;100.00
61786;BME280;47692;53.714;11.372;2023-02-11T10:38:13;102087.00;;;6.30;100.00
61786;BME280;47692;53.714;11.372;2023-02-11T10:40:39;102084.41;;;6.30;100.00
61786;BME280;47692;53.714;11.372;2023-02-11T10:43:09;102081.81;;;6.30;100.00
61786;BME280;47692;53.714;11.372;2023-02-11T10:45:46;102080.13;;;6.32;100.00
61786;BME280;47692;53.714;11.372;2023-02-11T10:53:37;102071.44;;;6.30;100.00
61786;BME280;47692;53.714;11.372;2023-02-11T10:56:03;102059.38;;;6.32;100.00
61786;BME280;47692;53.714;11.372;2023-02-11T10:58:36;102075.78;;;6.33;100.00
61786;BME280;47692;53.714;11.372;2023-02-11T11:01:04;102085.34;;;6.35;100.00
61786;BME280;47692;53.714;11.372;2023-02-11T11:03:36;102087.19;;;6.42;100.00
61786;BME280;47692;53.714;11.372;2023-02-11T11:06:05;102102.81;;;6.45;100.00
61786;BME280;47692;53.714;11.372;2023-02-11T11:08:46;102089.03;;;6.50;100.00
61786;BME280;47692;53.714;11.372;2023-02-11T11:11:23;102085.69;;;6.55;100.00
61786;BME280;47692;53.714;11.372;2023-02-11T11:18:44;102059.94;;;6.69;100.00
61786;BME280;47692;53.714;11.372;2023-02-11T11:21:19;102066.88;;;6.70;100.00
61786;BME280;47692;53.714;11.372;2023-02-11T11:26:18;102082.41;;;6.67;100.00
61786;BME280;47692;53.714;11.372;2023-02-11T11:31:24;102087.69;;;6.73;100.00
61786;BME280;47692;53.714;11.372;2023-02-11T11:33:52;102089.44;;;6.74;100.00
61786;BME280;47692;53.714;11.372;2023-02-11T11:36:20;102089.56;;;6.84;100.00
61786;BME280;47692;53.714;11.372;2023-02-11T11:38:57;102078.38;;;6.86;100.00
61786;BME280;47692;53.714;11.372;2023-02-11T11:41:29;102083.56;;;6.86;100.00
61786;BME280;47692;53.714;11.372;2023-02-11T11:46:27;102073.28;;;6.95;100.00
61786;BME280;47692;53.714;11.372;2023-02-11T11:48:57;102077.72;;;7.01;100.00
61786;BME280;47692;53.714;11.372;2023-02-11T11:51:26;102101.97;;;7.03;100.00
61786;BME280;47692;53.714;11.372;2023-02-11T11:54:03;102095.06;;;7.05;100.00
61786;BME280;47692;53.714;11.372;2023-02-11T11:56:33;102111.50;;;7.06;100.00
61786;BME280;47692;53.714;11.372;2023-02-11T11:59:01;102115.84;;;7.05;100.00
61786;BME280;47692;53.714;11.372;2023-02-11T12:04:51;102121.97;;;7.10;100.00
61786;BME280;47692;53.714;11.372;2023-02-11T12:15:33;102117.69;;;7.13;100.00
61786;BME280;47692;53.714;11.372;2023-02-11T12:18:11;102121.16;;;7.15;100.00
61786;BME280;47692;53.714;11.372;2023-02-11T12:31:16;102111.75;;;7.21;100.00
61786;BME280;47692;53.714;11.372;2023-02-11T12:34:09;102117.81;;;7.22;100.00
61786;BME280;47692;53.714;11.372;2023-02-11T12:39:39;102111.78;;;7.24;100.00
61786;BME280;47692;53.714;11.372;2023-02-11T12:54:06;102140.28;;;7.20;100.00
61786;BME280;47692;53.714;11.372;2023-02-11T12:56:54;102142.91;;;7.21;100.00
61786;BME280;47692;53.714;11.372;2023-02-11T12:59:59;102155.00;;;7.19;100.00
61786;BME280;47692;53.714;11.372;2023-02-11T13:07:46;102160.91;;;7.07;100.00
61786;BME280;47692;53.714;11.372;2023-02-11T13:12:47;102141.84;;;7.08;100.00
61786;BME280;47692;53.714;11.372;2023-02-11T13:15:33;102138.31;;;7.05;100.00
61786;BME280;47692;53.714;11.372;2023-02-11T13:20:55;102154.75;;;7.02;100.00
61786;BME280;47692;53.714;11.372;2023-02-11T13:23:33;102163.41;;;7.01;100.00
61786;BME280;47692;53.714;11.372;2023-02-11T13:28:57;102160.66;;;6.92;100.00
61786;BME280;47692;53.714;11.372;2023-02-11T13:31:26;102164.16;;;6.94;100.00
61786;BME280;47692;53.714;11.372;2023-02-11T13:33:53;102156.31;;;6.91;100.00
61786;BME280;47692;53.714;11.372;2023-02-11T13:36:24;102171.88;;;6.89;100.00
61786;BME280;47692;53.714;11.372;2023-02-11T13:39:02;102165.81;;;6.89;100.00
61786;BME280;47692;53.714;11.372;2023-02-11T13:41:41;102181.31;;;6.86;100.00
61786;BME280;47692;53.714;11.372;2023-02-11T13:46:52;102191.72;;;6.86;100.00
61786;BME280;47692;53.714;11.372;2023-02-11T13:49:25;102190.84;;;6.85;100.00
61786;BME280;47692;53.714;11.372;2023-02-11T13:51:52;102196.88;;;6.83;100.00
61786;BME280;47692;53.714;11.372;2023-02-11T13:54:25;102206.38;;;6.84;100.00
61786;BME280;47692;53.714;11.372;2023-02-11T13:59:45;102221.13;;;6.85;100.00
61786;BME280;47692;53.714;11.372;2023-02-11T14:02:31;102225.47;;;6.86;100.00
61786;BME280;47692;53.714;11.372;2023-02-11T14:16:19;102226.28;;;6.82;100.00
61786;BME280;47692;53.714;11.372;2023-02-11T14:21:30;102231.38;;;6.78;100.00
61786;BME280;47692;53.714;11.372;2023-02-11T14:27:23;102240.94;;;6.79;100.00
61786;BME280;47692;53.714;11.372;2023-02-11T14:32:55;102246.97;;;6.78;100.00
61786;BME280;47692;53.714;11.372;2023-02-11T14:35:54;102244.34;;;6.77;100.00
61786;BME280;47692;53.714;11.372;2023-02-11T14:40:57;102257.41;;;6.82;100.00
61786;BME280;47692;53.714;11.372;2023-02-11T14:43:37;102258.28;;;6.82;100.00
61786;BME280;47692;53.714;11.372;2023-02-11T14:46:04;102254.00;;;6.84;100.00
61786;BME280;47692;53.714;11.372;2023-02-11T14:48:33;102265.31;;;6.86;100.00
61786;BME280;47692;53.714;11.372;2023-02-11T14:51:05;102282.56;;;6.86;100.00
61786;BME280;47692;53.714;11.372;2023-02-11T14:53:32;102278.31;;;6.88;100.00
61786;BME280;47692;53.714;11.372;2023-02-11T14:55:58;102283.50;;;6.88;100.00
61786;BME280;47692;53.714;11.372;2023-02-11T14:58:30;102281.72;;;6.85;100.00
61786;BME280;47692;53.714;11.372;2023-02-11T15:03:30;102278.31;;;6.88;100.00
61786;BME280;47692;53.714;11.372;2023-02-11T15:06:11;102288.69;;;6.88;100.00
61786;BME280;47692;53.714;11.372;2023-02-11T15:08:43;102295.63;;;6.89;100.00
61786;BME280;47692;53.714;11.372;2023-02-11T15:11:13;102295.63;;;6.89;100.00
61786;BME280;47692;53.714;11.372;2023-02-11T15:13:39;102305.19;;;6.91;100.00